createdAt,value
2018-03-23T00:01:02.915Z,66.80
2018-03-23T00:03:30.382Z,66.60
2018-03-23T00:05:58.616Z,66.80
2018-03-23T00:08:26.099Z,66.80
2018-03-23T00:10:53.586Z,66.90
2018-03-23T00:13:21.043Z,67.00
2018-03-23T00:15:48.519Z,66.90
2018-03-23T00:18:15.974Z,67.00
2018-03-23T00:20:43.540Z,67.00
2018-03-23T00:23:11.046Z,66.90
2018-03-23T00:25:38.545Z,66.90
2018-03-23T00:28:06.000Z,66.90
2018-03-23T00:30:33.512Z,67.00
2018-03-23T00:33:00.982Z,67.00
2018-03-23T00:35:28.454Z,67.00
2018-03-23T00:37:55.957Z,66.90
2018-03-23T00:40:23.419Z,66.90
2018-03-23T00:42:50.884Z,67.00
2018-03-23T00:45:18.368Z,67.10
2018-03-23T00:47:46.613Z,66.60
2018-03-23T00:50:14.094Z,67.10
2018-03-23T00:52:41.562Z,67.20
2018-03-23T00:55:09.766Z,67.20
2018-03-23T00:57:37.237Z,67.10
2018-03-23T01:00:04.699Z,67.10
2018-03-23T01:02:32.181Z,67.10
2018-03-23T01:04:59.664Z,67.00
2018-03-23T01:07:27.154Z,67.00
2018-03-23T01:09:54.603Z,67.00
2018-03-23T01:12:22.082Z,67.10
2018-03-23T01:14:49.553Z,66.90
2018-03-23T01:17:17.022Z,66.80
2018-03-23T01:19:44.499Z,66.80
2018-03-23T01:22:14.944Z,67.00
2018-03-23T01:24:42.420Z,66.90
2018-03-23T01:27:09.915Z,67.00
2018-03-23T01:29:37.397Z,66.80
2018-03-23T01:32:04.876Z,66.80
2018-03-23T01:34:32.355Z,66.90
2018-03-23T01:36:59.876Z,66.80
2018-03-23T01:39:27.299Z,66.80
2018-03-23T01:41:54.759Z,66.50
2018-03-23T01:44:22.237Z,66.70
2018-03-23T01:46:49.708Z,66.70
2018-03-23T01:49:17.984Z,67.30
2018-03-23T01:51:45.428Z,66.60
2018-03-23T01:54:12.905Z,66.80
2018-03-23T01:56:40.371Z,66.60
2018-03-23T01:59:07.863Z,66.70
2018-03-23T02:01:35.334Z,67.40
2018-03-23T02:04:02.795Z,66.90
2018-03-23T02:06:30.343Z,67.00
2018-03-23T02:08:57.807Z,67.00
2018-03-23T02:11:25.264Z,67.00
2018-03-23T02:13:52.722Z,67.00
2018-03-23T02:16:20.266Z,66.80
2018-03-23T02:18:47.734Z,66.90
2018-03-23T02:21:15.192Z,66.90
2018-03-23T02:23:42.722Z,66.90
2018-03-23T02:26:10.177Z,66.80
2018-03-23T02:28:37.646Z,66.90
2018-03-23T02:31:05.301Z,67.00
2018-03-23T02:33:34.295Z,66.90
2018-03-23T02:36:01.755Z,66.90
2018-03-23T02:38:29.242Z,66.80
2018-03-23T02:40:56.702Z,66.80
2018-03-23T02:43:24.161Z,66.70
2018-03-23T02:45:51.617Z,66.80
2018-03-23T02:48:19.094Z,67.00
2018-03-23T02:50:46.559Z,66.90
2018-03-23T02:53:14.015Z,67.10
2018-03-23T02:55:41.504Z,67.20
2018-03-23T02:58:08.966Z,66.80
2018-03-23T03:00:36.440Z,66.70
2018-03-23T03:03:03.929Z,66.90
2018-03-23T03:05:32.161Z,67.10
2018-03-23T03:07:59.627Z,67.00
2018-03-23T03:10:27.188Z,67.20
2018-03-23T03:12:54.657Z,67.10
2018-03-23T03:15:22.132Z,67.20
2018-03-23T03:17:50.360Z,67.10
2018-03-23T03:20:17.892Z,67.10
2018-03-23T03:22:45.356Z,67.10
2018-03-23T03:25:12.859Z,67.20
2018-03-23T03:27:40.321Z,67.20
2018-03-23T03:30:07.805Z,67.20
2018-03-23T03:32:36.040Z,67.00
2018-03-23T03:35:03.516Z,66.90
2018-03-23T03:37:31.038Z,67.00
2018-03-23T03:39:58.531Z,67.30
2018-03-23T03:42:25.991Z,67.30
2018-03-23T03:44:53.452Z,67.10
2018-03-23T03:47:21.698Z,67.20
2018-03-23T03:49:49.167Z,67.10
2018-03-23T03:52:16.630Z,67.20
2018-03-23T03:54:44.093Z,67.20
2018-03-23T03:57:11.566Z,67.30
2018-03-23T03:59:39.032Z,67.30
2018-03-23T04:02:06.577Z,67.40
2018-03-23T04:04:34.808Z,67.20
2018-03-23T04:07:02.294Z,67.20
2018-03-23T04:09:29.763Z,67.20
2018-03-23T04:11:57.241Z,67.20
2018-03-23T04:14:24.713Z,67.40
2018-03-23T04:16:52.195Z,67.30
2018-03-23T04:19:19.659Z,67.30
2018-03-23T04:21:47.216Z,67.90
2018-03-23T04:24:14.680Z,67.40
2018-03-23T04:26:42.169Z,67.30
2018-03-23T04:29:09.628Z,67.20
2018-03-23T04:31:37.086Z,66.90
2018-03-23T04:34:04.570Z,67.20
2018-03-23T04:36:32.036Z,67.30
2018-03-23T04:38:59.527Z,67.60
2018-03-23T04:41:26.979Z,67.60
2018-03-23T04:43:54.447Z,67.60
2018-03-23T04:46:21.920Z,67.60
2018-03-23T04:48:49.388Z,67.50
2018-03-23T04:51:16.869Z,67.70
2018-03-23T04:53:44.339Z,68.50
2018-03-23T04:56:11.803Z,67.90
2018-03-23T04:58:39.287Z,68.00
2018-03-23T05:01:06.755Z,67.90
2018-03-23T05:03:34.236Z,67.70
2018-03-23T05:06:01.695Z,67.80
2018-03-23T05:08:29.164Z,67.70
2018-03-23T05:10:56.633Z,67.80
2018-03-23T05:13:24.096Z,68.00
2018-03-23T05:15:51.566Z,67.80
2018-03-23T05:18:19.041Z,67.80
2018-03-23T05:20:46.525Z,67.80
2018-03-23T05:23:13.993Z,68.60
2018-03-23T05:25:41.503Z,68.00
2018-03-23T05:28:09.044Z,68.00
2018-03-23T05:30:36.611Z,68.00
2018-03-23T05:33:04.114Z,68.00
2018-03-23T05:35:32.393Z,67.80
2018-03-23T05:37:59.907Z,67.80
2018-03-23T05:40:27.432Z,67.80
2018-03-23T05:42:55.053Z,67.90
2018-03-23T05:45:22.605Z,68.10
2018-03-23T05:47:50.076Z,67.70
2018-03-23T05:50:17.724Z,68.00
2018-03-23T05:52:45.239Z,67.90
2018-03-23T05:55:12.888Z,68.00
2018-03-23T05:57:40.452Z,67.90
2018-03-23T06:00:07.970Z,68.10
2018-03-23T06:02:35.471Z,68.10
2018-03-23T06:05:03.029Z,68.20
2018-03-23T06:07:30.530Z,68.20
2018-03-23T06:09:58.120Z,68.00
2018-03-23T06:12:25.699Z,68.10
2018-03-23T06:14:53.286Z,68.20
2018-03-23T06:17:21.705Z,68.00
2018-03-23T06:19:49.247Z,67.90
2018-03-23T06:22:16.761Z,68.00
2018-03-23T06:24:44.331Z,68.30
2018-03-23T06:27:11.868Z,68.50
2018-03-23T06:29:39.463Z,68.50
2018-03-23T06:32:07.104Z,68.50
2018-03-23T06:34:34.631Z,68.50
2018-03-23T06:37:02.234Z,68.60
2018-03-23T06:39:29.820Z,67.90
2018-03-23T06:41:57.380Z,68.40
2018-03-23T06:44:24.904Z,68.20
2018-03-23T06:46:52.449Z,68.20
2018-03-23T06:49:20.054Z,68.20
2018-03-23T06:51:47.633Z,68.30
2018-03-23T06:54:15.197Z,68.30
2018-03-23T06:56:42.746Z,68.30
2018-03-23T06:59:11.036Z,68.30
2018-03-23T07:01:38.569Z,68.00
2018-03-23T07:04:06.138Z,68.00
2018-03-23T07:06:33.692Z,68.10
2018-03-23T07:09:01.236Z,68.30
2018-03-23T07:11:28.796Z,68.20
2018-03-23T07:13:56.520Z,67.80
2018-03-23T07:16:24.091Z,67.80
2018-03-23T07:18:51.616Z,67.80
2018-03-23T07:21:19.216Z,68.10
2018-03-23T07:23:46.870Z,68.30
2018-03-23T07:26:14.480Z,68.30
2018-03-23T07:28:42.074Z,68.30
2018-03-23T07:31:09.633Z,68.30
2018-03-23T07:33:37.919Z,68.00
2018-03-23T07:36:05.464Z,68.00
2018-03-23T07:38:33.868Z,68.10
2018-03-23T07:41:01.440Z,68.10
2018-03-23T07:43:29.034Z,68.00
2018-03-23T07:45:56.595Z,68.00
2018-03-23T07:48:24.179Z,67.80
2018-03-23T07:50:51.975Z,68.00
2018-03-23T07:53:19.579Z,68.10
2018-03-23T07:55:47.100Z,68.00
2018-03-23T07:58:14.649Z,68.00
2018-03-23T08:00:42.925Z,68.30
2018-03-23T08:03:10.455Z,68.10
2018-03-23T08:05:38.059Z,68.10
2018-03-23T08:08:05.585Z,68.10
2018-03-23T08:10:33.098Z,68.30
2018-03-23T08:13:00.607Z,68.10
2018-03-23T08:15:28.162Z,68.10
2018-03-23T08:17:55.768Z,68.20
2018-03-23T08:20:23.294Z,68.30
2018-03-23T08:22:50.840Z,68.20
2018-03-23T08:25:18.409Z,68.10
2018-03-23T08:27:46.280Z,68.00
2018-03-23T08:30:13.862Z,68.10
2018-03-23T08:32:41.408Z,67.90
2018-03-23T08:35:09.006Z,67.90
2018-03-23T08:37:36.562Z,67.80
2018-03-23T08:40:04.156Z,67.70
2018-03-23T08:42:31.656Z,67.60
2018-03-23T08:44:59.229Z,67.50
2018-03-23T08:47:26.747Z,67.50
2018-03-23T08:49:54.343Z,67.40
2018-03-23T08:52:21.968Z,67.10
2018-03-23T08:54:49.560Z,67.10
2018-03-23T08:57:17.094Z,67.20
2018-03-23T08:59:44.663Z,67.10
2018-03-23T09:02:13.054Z,67.10
2018-03-23T09:04:41.334Z,67.00
2018-03-23T09:07:08.860Z,67.00
2018-03-23T09:09:36.551Z,67.00
2018-03-23T09:12:04.268Z,66.90
2018-03-23T09:14:31.799Z,66.80
2018-03-23T09:17:00.102Z,66.90
2018-03-23T09:19:27.619Z,66.80
2018-03-23T09:21:55.128Z,66.80
2018-03-23T09:24:22.635Z,66.90
2018-03-23T09:26:50.286Z,66.80
2018-03-23T09:29:17.777Z,67.40
2018-03-23T09:31:45.321Z,66.70
2018-03-23T09:34:13.636Z,66.70
2018-03-23T09:36:41.172Z,66.70
2018-03-23T09:39:09.502Z,66.70
2018-03-23T09:41:37.916Z,66.70
2018-03-23T09:44:05.475Z,66.60
2018-03-23T09:46:33.783Z,66.70
2018-03-23T09:49:02.095Z,66.60
2018-03-23T09:51:29.590Z,66.40
2018-03-23T09:53:57.134Z,66.40
2018-03-23T09:56:25.363Z,66.50
2018-03-23T09:58:52.893Z,66.40
2018-03-23T10:01:20.387Z,66.50
2018-03-23T10:03:47.904Z,66.40
2018-03-23T10:06:15.444Z,66.30
2018-03-23T10:08:43.747Z,66.00
2018-03-23T10:11:11.264Z,65.90
2018-03-23T10:13:38.774Z,65.90
2018-03-23T10:16:06.336Z,65.80
2018-03-23T10:18:33.812Z,65.80
2018-03-23T10:21:01.302Z,65.70
2018-03-23T10:23:28.751Z,65.60
2018-03-23T10:25:56.235Z,65.60
2018-03-23T10:28:24.480Z,65.60
2018-03-23T10:30:51.948Z,65.50
2018-03-23T10:33:19.491Z,65.50
2018-03-23T10:35:46.960Z,65.30
2018-03-23T10:38:14.436Z,65.40
2018-03-23T10:40:42.720Z,65.30
2018-03-23T10:43:10.182Z,65.10
2018-03-23T10:45:37.752Z,65.00
2018-03-23T10:48:05.235Z,64.90
2018-03-23T10:50:32.712Z,64.60
2018-03-23T10:53:00.200Z,64.50
2018-03-23T10:55:28.456Z,64.20
2018-03-23T10:57:55.956Z,64.20
2018-03-23T11:00:42.156Z,65.00
2018-03-23T11:03:09.628Z,64.10
2018-03-23T11:05:37.083Z,63.90
2018-03-23T11:08:04.601Z,63.80
2018-03-23T11:10:32.828Z,63.70
2018-03-23T11:13:00.297Z,63.70
2018-03-23T11:15:27.768Z,64.30
2018-03-23T11:17:55.246Z,63.50
2018-03-23T11:20:22.707Z,63.40
2018-03-23T11:22:50.932Z,63.50
2018-03-23T11:25:18.431Z,63.50
2018-03-23T11:27:45.928Z,63.60
2018-03-23T11:30:13.421Z,63.50
2018-03-23T11:32:40.887Z,63.40
2018-03-23T11:35:08.347Z,63.50
2018-03-23T11:37:36.589Z,63.40
2018-03-23T11:40:04.822Z,63.10
2018-03-23T11:42:33.044Z,63.00
2018-03-23T11:45:00.530Z,62.90
2018-03-23T11:47:28.016Z,62.70
2018-03-23T11:49:55.495Z,62.70
2018-03-23T11:52:22.964Z,62.40
2018-03-23T11:54:50.439Z,62.60
2018-03-23T11:57:17.905Z,62.60
2018-03-23T11:59:45.379Z,62.70
2018-03-23T12:02:13.604Z,62.40
2018-03-23T12:04:41.060Z,62.40
2018-03-23T12:07:08.702Z,62.40
2018-03-23T12:09:36.157Z,62.30
2018-03-23T12:12:03.687Z,62.20
2018-03-23T12:14:31.157Z,62.20
2018-03-23T12:16:58.644Z,62.10
2018-03-23T12:19:26.103Z,62.00
2018-03-23T12:21:53.582Z,61.90
2018-03-23T12:24:21.055Z,61.80
2018-03-23T12:26:48.536Z,61.70
2018-03-23T12:29:15.995Z,61.60
2018-03-23T12:31:43.480Z,61.40
2018-03-23T12:34:10.951Z,61.30
2018-03-23T12:36:38.431Z,61.30
2018-03-23T12:39:05.905Z,61.30
2018-03-23T12:41:33.372Z,61.20
2018-03-23T12:44:01.615Z,60.90
2018-03-23T12:46:29.863Z,60.80
2018-03-23T12:48:57.340Z,60.80
2018-03-23T12:51:24.823Z,60.80
2018-03-23T12:53:52.297Z,60.60
2018-03-23T12:56:19.760Z,60.60
2018-03-23T12:58:47.248Z,60.40
2018-03-23T13:01:14.704Z,59.20
2018-03-23T13:03:42.203Z,59.00
2018-03-23T13:06:09.671Z,58.90
2018-03-23T13:08:37.302Z,58.80
2018-03-23T13:11:04.803Z,58.70
2018-03-23T13:13:32.299Z,58.50
2018-03-23T13:15:59.764Z,58.50
2018-03-23T13:18:27.239Z,58.50
2018-03-23T13:20:54.708Z,58.50
2018-03-23T13:23:22.176Z,58.40
2018-03-23T13:25:49.727Z,58.40
2018-03-23T13:28:17.191Z,58.30
2018-03-23T13:30:45.431Z,58.40
2018-03-23T13:33:12.945Z,58.40
2018-03-23T13:35:40.431Z,58.30
2018-03-23T13:38:07.912Z,58.40
2018-03-23T13:40:35.408Z,58.70
2018-03-23T13:43:03.641Z,59.00
2018-03-23T13:45:31.113Z,59.80
2018-03-23T13:47:58.599Z,59.90
2018-03-23T13:50:26.062Z,60.10
2018-03-23T13:52:54.373Z,59.40
2018-03-23T13:55:21.852Z,59.50
2018-03-23T13:57:49.472Z,60.50
2018-03-23T14:00:22.516Z,60.60
2018-03-23T14:02:49.985Z,60.70
2018-03-23T14:05:17.452Z,60.90
2018-03-23T14:07:44.919Z,60.90
2018-03-23T14:10:12.376Z,60.90
2018-03-23T14:12:39.858Z,61.10
2018-03-23T14:15:07.312Z,61.30
2018-03-23T14:17:34.788Z,61.20
2018-03-23T14:20:02.252Z,61.40
2018-03-23T14:22:29.717Z,62.20
2018-03-23T14:24:57.185Z,61.60
2018-03-23T14:27:24.652Z,61.50
2018-03-23T14:29:52.142Z,61.60
2018-03-23T14:32:19.614Z,61.60
2018-03-23T14:34:47.094Z,61.60
2018-03-23T14:37:14.552Z,61.60
2018-03-23T14:39:42.020Z,61.60
2018-03-23T14:42:09.483Z,61.60
2018-03-23T14:44:36.958Z,61.60
2018-03-23T14:47:05.179Z,61.80
2018-03-23T14:49:32.650Z,61.60
2018-03-23T14:52:00.110Z,61.80
2018-03-23T14:54:27.577Z,61.60
2018-03-23T14:56:55.051Z,61.50
2018-03-23T14:59:22.540Z,61.50
2018-03-23T15:01:49.992Z,61.50
2018-03-23T15:04:17.500Z,61.50
2018-03-23T15:06:44.980Z,61.50
2018-03-23T15:09:13.199Z,61.40
2018-03-23T15:11:40.704Z,61.30
2018-03-23T15:14:15.948Z,61.40
2018-03-23T15:16:44.203Z,61.50
2018-03-23T15:19:11.653Z,61.50
2018-03-23T15:21:39.126Z,61.50
2018-03-23T15:24:06.586Z,61.50
2018-03-23T15:26:34.057Z,61.60
2018-03-23T15:29:01.523Z,62.40
2018-03-23T15:31:29.094Z,61.80
2018-03-23T15:33:56.560Z,61.70
2018-03-23T15:36:24.027Z,61.90
2018-03-23T15:38:51.520Z,62.10
2018-03-23T15:41:19.001Z,62.20
2018-03-23T15:43:46.508Z,62.20
2018-03-23T15:46:13.993Z,62.20
2018-03-23T15:48:41.460Z,62.20
2018-03-23T15:51:08.934Z,62.20
2018-03-23T15:53:36.395Z,62.30
2018-03-23T15:56:03.855Z,62.50
2018-03-23T15:58:31.316Z,62.30
2018-03-23T16:00:58.805Z,62.40
2018-03-23T16:03:26.304Z,62.40
2018-03-23T16:05:53.783Z,62.40
2018-03-23T16:08:22.036Z,62.30
2018-03-23T16:10:49.498Z,62.30
2018-03-23T16:13:17.032Z,62.30
2018-03-23T16:15:44.471Z,62.50
2018-03-23T16:18:11.951Z,62.50
2018-03-23T16:20:39.428Z,62.30
2018-03-23T16:23:07.672Z,62.40
2018-03-23T16:25:35.921Z,62.40
2018-03-23T16:28:03.427Z,62.20
2018-03-23T16:30:31.307Z,62.40
2018-03-23T16:32:58.786Z,62.40
2018-03-23T16:35:26.259Z,62.50
2018-03-23T16:37:53.752Z,62.50
2018-03-23T16:40:21.218Z,62.70
2018-03-23T16:42:48.712Z,62.60
2018-03-23T16:45:16.188Z,62.60
2018-03-23T16:47:43.663Z,62.60
2018-03-23T16:50:11.141Z,62.60
2018-03-23T16:52:38.636Z,62.60
2018-03-23T16:55:06.249Z,62.70
2018-03-23T16:57:33.907Z,62.80
2018-03-23T17:00:01.396Z,62.80
2018-03-23T17:02:28.872Z,62.80
2018-03-23T17:04:56.352Z,62.70
2018-03-23T17:07:23.853Z,62.80
2018-03-23T17:09:51.329Z,62.80
2018-03-23T17:12:19.576Z,62.60
2018-03-23T17:14:47.065Z,62.60
2018-03-23T17:17:14.553Z,62.70
2018-03-23T17:19:42.062Z,62.70
2018-03-23T17:22:09.549Z,62.70
2018-03-23T17:24:37.804Z,62.40
2018-03-23T17:27:05.308Z,62.30
2018-03-23T17:29:32.797Z,62.40
2018-03-23T17:32:00.292Z,62.50
2018-03-23T17:34:27.757Z,62.60
2018-03-23T17:36:55.988Z,62.60
2018-03-23T17:39:23.478Z,62.60
2018-03-23T17:41:50.947Z,62.60
2018-03-23T17:44:18.415Z,62.60
2018-03-23T17:46:45.982Z,62.80
2018-03-23T17:49:13.440Z,62.80
2018-03-23T17:51:40.946Z,62.80
2018-03-23T17:54:08.503Z,62.90
2018-03-23T17:56:35.980Z,62.90
2018-03-23T17:59:03.469Z,62.90
2018-03-23T18:01:30.941Z,63.00
2018-03-23T18:03:58.412Z,63.10
2018-03-23T18:06:25.888Z,63.10
2018-03-23T18:08:53.349Z,63.20
2018-03-23T18:11:20.831Z,63.30
2018-03-23T18:13:49.059Z,63.30
2018-03-23T18:16:17.350Z,63.30
2018-03-23T18:18:44.819Z,63.30
2018-03-23T18:21:12.299Z,63.30
2018-03-23T18:23:39.759Z,63.30
2018-03-23T18:26:07.229Z,63.30
2018-03-23T18:28:34.720Z,63.30
2018-03-23T18:31:02.190Z,63.30
2018-03-23T18:33:29.664Z,63.20
2018-03-23T18:35:57.123Z,63.30
2018-03-23T18:38:25.509Z,63.30
2018-03-23T18:40:53.007Z,63.50
2018-03-23T18:43:20.495Z,63.40
2018-03-23T18:45:47.971Z,63.40
2018-03-23T18:48:15.457Z,63.50
2018-03-23T18:50:42.948Z,63.60
2018-03-23T18:53:10.434Z,63.60
2018-03-23T18:55:37.912Z,63.70
2018-03-23T18:58:05.398Z,63.70
2018-03-23T19:00:32.863Z,63.60
2018-03-23T19:03:00.359Z,63.70
2018-03-23T19:05:27.828Z,63.60
2018-03-23T19:07:55.303Z,63.60
2018-03-23T19:10:22.764Z,63.60
2018-03-23T19:12:50.263Z,63.70
2018-03-23T19:15:17.749Z,63.80
2018-03-23T19:17:46.015Z,63.70
2018-03-23T19:20:13.497Z,63.70
2018-03-23T19:22:40.975Z,63.80
2018-03-23T19:25:08.482Z,63.80
2018-03-23T19:27:35.963Z,63.80
2018-03-23T19:30:03.462Z,63.70
2018-03-23T19:32:30.933Z,63.70
2018-03-23T19:34:58.412Z,63.70
2018-03-23T19:37:25.881Z,63.70
2018-03-23T19:39:53.373Z,63.70
2018-03-23T19:42:20.840Z,63.70
2018-03-23T19:44:48.329Z,63.70
2018-03-23T19:47:15.798Z,63.70
2018-03-23T19:49:43.281Z,63.60
2018-03-23T19:52:10.760Z,63.60
2018-03-23T19:54:38.252Z,63.60
2018-03-23T19:57:05.785Z,63.60
2018-03-23T19:59:33.224Z,63.60
2018-03-23T20:02:02.111Z,63.60
2018-03-23T20:04:29.637Z,63.60
2018-03-23T20:06:57.112Z,63.50
2018-03-23T20:09:24.587Z,63.60
2018-03-23T20:11:52.924Z,63.90
2018-03-23T20:14:20.415Z,63.50
2018-03-23T20:16:47.896Z,63.50
2018-03-23T20:19:15.361Z,63.60
2018-03-23T20:21:42.850Z,63.60
2018-03-23T20:24:29.771Z,63.60
2018-03-23T20:27:02.822Z,63.70
2018-03-23T20:29:30.303Z,63.80
2018-03-23T20:32:03.444Z,63.90
2018-03-23T20:34:30.908Z,63.90
2018-03-23T20:36:58.460Z,64.70
2018-03-23T20:39:25.927Z,64.10
2018-03-23T20:41:53.408Z,64.10
2018-03-23T20:44:20.888Z,64.10
2018-03-23T20:46:48.366Z,63.70
2018-03-23T20:49:16.664Z,63.60
2018-03-23T20:51:44.153Z,64.00
2018-03-23T20:54:11.609Z,64.20
2018-03-23T20:56:39.092Z,64.30
2018-03-23T20:59:06.560Z,64.30
2018-03-23T21:01:34.057Z,64.40
2018-03-23T21:04:02.290Z,64.60
2018-03-23T21:06:29.770Z,64.40
2018-03-23T21:08:57.262Z,64.40
2018-03-23T21:11:24.741Z,64.50
2018-03-23T21:13:52.244Z,64.50
2018-03-23T21:16:19.770Z,64.50
2018-03-23T21:18:47.242Z,65.20
2018-03-23T21:21:14.698Z,64.60
2018-03-23T21:23:42.178Z,64.50
2018-03-23T21:26:09.646Z,64.50
2018-03-23T21:28:37.118Z,64.60
2018-03-23T21:31:04.592Z,64.60
2018-03-23T21:33:32.872Z,64.60
2018-03-23T21:36:00.358Z,64.60
2018-03-23T21:38:27.935Z,64.60
2018-03-23T21:40:55.400Z,64.60
2018-03-23T21:43:22.880Z,65.40
2018-03-23T21:45:50.355Z,64.70
2018-03-23T21:48:17.842Z,64.70
2018-03-23T21:50:45.304Z,64.70
2018-03-23T21:53:12.780Z,64.50
2018-03-23T21:55:40.250Z,64.70
2018-03-23T21:58:08.491Z,64.90
2018-03-23T22:00:35.967Z,64.90
2018-03-23T22:03:03.428Z,64.80
2018-03-23T22:05:31.420Z,64.70
2018-03-23T22:07:58.879Z,64.60
2018-03-23T22:10:26.362Z,64.80
2018-03-23T22:12:53.846Z,65.00
2018-03-23T22:15:21.311Z,65.10
2018-03-23T22:17:48.779Z,65.10
2018-03-23T22:20:16.248Z,65.10
2018-03-23T22:22:43.716Z,65.20
2018-03-23T22:25:11.196Z,65.20
2018-03-23T22:27:38.668Z,65.20
2018-03-23T22:30:06.166Z,65.20
2018-03-23T22:32:33.640Z,65.20
2018-03-23T22:35:01.890Z,65.20
2018-03-23T22:37:29.358Z,65.20
2018-03-23T22:39:56.864Z,65.20
2018-03-23T22:42:24.343Z,65.20
2018-03-23T22:44:51.803Z,65.30
2018-03-23T22:47:19.287Z,65.30
2018-03-23T22:49:46.746Z,65.30
2018-03-23T22:52:14.216Z,65.30
2018-03-23T22:54:42.458Z,65.20
2018-03-23T22:57:09.932Z,65.20
2018-03-23T22:59:37.401Z,65.10
2018-03-23T23:02:04.882Z,65.30
2018-03-23T23:04:32.375Z,65.40
2018-03-23T23:06:59.856Z,65.50
2018-03-23T23:09:27.319Z,65.50
2018-03-23T23:11:54.787Z,66.20
2018-03-23T23:14:23.015Z,65.60
2018-03-23T23:16:50.509Z,65.60
2018-03-23T23:19:17.967Z,65.70
2018-03-23T23:21:45.459Z,65.60
2018-03-23T23:24:12.937Z,65.70
2018-03-23T23:26:40.411Z,65.70
2018-03-23T23:29:07.880Z,65.70
2018-03-23T23:31:35.340Z,65.70
2018-03-23T23:34:02.815Z,65.80
2018-03-23T23:36:31.064Z,66.50
2018-03-23T23:38:58.543Z,65.80
2018-03-23T23:41:26.008Z,65.70
2018-03-23T23:43:53.485Z,65.60
2018-03-23T23:46:20.952Z,65.30
2018-03-23T23:48:48.419Z,65.30
2018-03-23T23:51:15.955Z,65.40
2018-03-23T23:53:43.685Z,65.50
2018-03-23T23:56:11.163Z,65.60
2018-03-23T23:58:39.393Z,65.60
